createdAt,value
2019-05-28T00:01:31.489Z,79.92
2019-05-28T00:03:37.989Z,80.08
2019-05-28T00:05:44.389Z,80.01
2019-05-28T00:07:53.124Z,79.80
2019-05-28T00:09:59.488Z,80.02
2019-05-28T00:12:06.308Z,79.95
2019-05-28T00:14:12.786Z,80.17
2019-05-28T00:16:20.297Z,80.12
2019-05-28T00:18:26.752Z,80.25
2019-05-28T00:20:33.146Z,80.07
2019-05-28T00:22:39.592Z,80.07
2019-05-28T00:24:46.124Z,80.07
2019-05-28T00:26:52.596Z,79.96
2019-05-28T00:28:59.127Z,80.04
2019-05-28T00:31:05.782Z,80.08
2019-05-28T00:33:12.859Z,80.37
2019-05-28T00:35:19.573Z,80.02
2019-05-28T00:37:26.034Z,80.16
2019-05-28T00:39:32.716Z,80.37
2019-05-28T00:41:39.183Z,80.62
2019-05-28T00:43:45.702Z,80.56
2019-05-28T00:45:52.163Z,80.56
2019-05-28T00:47:58.710Z,80.52
2019-05-28T00:50:10.556Z,80.86
2019-05-28T00:52:17.098Z,81.34
2019-05-28T00:54:23.651Z,81.58
2019-05-28T00:56:30.357Z,82.13
2019-05-28T00:58:38.262Z,82.17
2019-05-28T01:00:48.484Z,82.19
2019-05-28T01:02:54.903Z,82.65
2019-05-28T01:05:01.451Z,82.71
2019-05-28T01:07:07.860Z,82.94
2019-05-28T01:09:14.302Z,83.03
2019-05-28T01:11:20.850Z,83.72
2019-05-28T01:13:28.062Z,83.60
2019-05-28T01:15:34.558Z,83.50
2019-05-28T01:17:41.166Z,83.65
2019-05-28T01:19:47.565Z,84.14
2019-05-28T01:21:53.989Z,84.43
2019-05-28T01:24:00.459Z,84.77
2019-05-28T01:26:06.885Z,84.72
2019-05-28T01:28:13.390Z,84.86
2019-05-28T01:30:19.988Z,85.07
2019-05-28T01:32:26.535Z,85.01
2019-05-28T01:34:32.969Z,84.98
2019-05-28T01:36:39.361Z,85.53
2019-05-28T01:38:45.760Z,86.38
2019-05-28T01:40:52.240Z,86.49
2019-05-28T01:42:58.655Z,86.59
2019-05-28T01:45:06.960Z,86.21
2019-05-28T01:47:13.417Z,86.38
2019-05-28T01:49:19.820Z,86.70
2019-05-28T01:51:26.235Z,86.68
2019-05-28T01:53:32.640Z,86.77
2019-05-28T01:55:39.054Z,86.79
2019-05-28T01:57:45.454Z,86.94
2019-05-28T01:59:51.924Z,87.17
2019-05-28T02:01:58.485Z,87.50
2019-05-28T02:04:05.457Z,87.55
2019-05-28T02:06:11.856Z,87.81
2019-05-28T02:08:18.301Z,88.06
2019-05-28T02:10:25.626Z,88.34
2019-05-28T02:12:32.109Z,88.31
2019-05-28T02:14:38.528Z,88.66
2019-05-28T02:16:44.926Z,88.71
2019-05-28T02:18:51.324Z,88.70
2019-05-28T02:20:57.796Z,88.62
2019-05-28T02:23:05.372Z,88.78
2019-05-28T02:25:12.371Z,88.80
2019-05-28T02:27:18.801Z,89.21
2019-05-28T02:29:25.283Z,89.41
2019-05-28T02:31:31.742Z,89.72
2019-05-28T02:33:38.137Z,89.81
2019-05-28T02:35:45.277Z,89.78
2019-05-28T02:37:51.800Z,89.80
2019-05-28T02:39:58.226Z,89.85
2019-05-28T02:42:04.752Z,89.75
2019-05-28T02:44:11.190Z,89.70
2019-05-28T02:46:17.591Z,89.90
2019-05-28T02:48:24.067Z,89.96
2019-05-28T02:50:53.247Z,90.27
2019-05-28T02:53:01.076Z,90.37
2019-05-28T02:55:10.062Z,90.42
2019-05-28T02:57:16.569Z,90.36
2019-05-28T02:59:25.566Z,90.50
2019-05-28T03:01:44.545Z,90.54
2019-05-28T03:03:48.488Z,90.63
2019-05-28T03:05:58.601Z,90.77
2019-05-28T03:08:05.809Z,91.02
2019-05-28T03:10:12.703Z,90.85
2019-05-28T03:12:19.207Z,90.82
2019-05-28T03:14:25.603Z,90.96
2019-05-28T03:16:36.459Z,90.92
2019-05-28T03:18:44.177Z,90.87
2019-05-28T03:20:51.801Z,91.05
2019-05-28T03:22:59.329Z,90.86
2019-05-28T03:25:08.948Z,90.85
2019-05-28T03:27:16.594Z,91.01
2019-05-28T03:29:23.206Z,91.00
2019-05-28T03:31:29.706Z,90.82
2019-05-28T03:33:36.265Z,91.05
2019-05-28T03:35:45.259Z,91.14
2019-05-28T03:37:53.411Z,90.73
2019-05-28T03:40:04.988Z,90.78
2019-05-28T03:42:11.417Z,90.67
2019-05-28T03:44:18.895Z,90.84
2019-05-28T03:46:25.494Z,90.69
2019-05-28T03:48:31.913Z,90.71
2019-05-28T03:50:38.434Z,90.83
2019-05-28T03:52:44.877Z,91.01
2019-05-28T03:54:51.354Z,91.02
2019-05-28T03:56:57.747Z,90.82
2019-05-28T03:59:04.441Z,90.44
2019-05-28T04:01:10.923Z,90.54
2019-05-28T04:03:20.509Z,90.65
2019-05-28T04:05:27.013Z,90.35
2019-05-28T04:07:33.520Z,90.37
2019-05-28T04:09:39.907Z,90.06
2019-05-28T04:11:46.347Z,90.01
2019-05-28T04:13:52.828Z,90.20
2019-05-28T04:15:59.260Z,90.21
2019-05-28T04:18:06.062Z,90.24
2019-05-28T04:20:12.797Z,90.38
2019-05-28T04:22:19.258Z,90.21
2019-05-28T04:24:25.654Z,90.66
2019-05-28T04:26:32.131Z,90.38
2019-05-28T04:28:38.605Z,90.68
2019-05-28T04:30:45.685Z,90.36
2019-05-28T04:32:52.170Z,90.19
2019-05-28T04:34:58.542Z,90.26
2019-05-28T04:37:05.112Z,90.43
2019-05-28T04:39:11.590Z,90.48
2019-05-28T04:41:18.047Z,90.63
2019-05-28T04:43:24.563Z,90.80
2019-05-28T04:45:31.034Z,90.78
2019-05-28T04:47:37.505Z,90.66
2019-05-28T04:49:43.985Z,90.34
2019-05-28T04:51:50.392Z,90.66
2019-05-28T04:53:56.806Z,90.38
2019-05-28T04:56:03.354Z,90.09
2019-05-28T04:58:09.911Z,90.21
2019-05-28T05:00:16.939Z,90.04
2019-05-28T05:02:23.490Z,90.02
2019-05-28T05:04:30.369Z,90.07
2019-05-28T05:06:36.886Z,89.55
2019-05-28T05:08:43.282Z,89.66
2019-05-28T05:10:49.736Z,89.46
2019-05-28T05:12:56.128Z,89.15
2019-05-28T05:15:03.066Z,87.48
2019-05-28T05:17:10.250Z,86.96
2019-05-28T05:19:16.797Z,86.19
2019-05-28T05:21:23.186Z,85.26
2019-05-28T05:23:29.634Z,84.14
2019-05-28T05:25:36.250Z,82.31
2019-05-28T05:27:42.698Z,82.30
2019-05-28T05:29:49.230Z,81.87
2019-05-28T05:31:55.760Z,81.30
2019-05-28T05:34:02.178Z,81.64
2019-05-28T05:36:09.619Z,81.65
2019-05-28T05:38:16.031Z,81.49
2019-05-28T05:40:22.843Z,81.40
2019-05-28T05:42:29.370Z,80.73
2019-05-28T05:44:35.996Z,79.72
2019-05-28T05:46:43.540Z,79.20
2019-05-28T05:48:49.927Z,78.89
2019-05-28T05:50:56.326Z,77.86
2019-05-28T05:53:04.021Z,76.54
2019-05-28T05:55:11.440Z,76.39
2019-05-28T05:57:17.842Z,75.12
2019-05-28T05:59:24.241Z,75.32
2019-05-28T06:01:30.664Z,74.97
2019-05-28T06:03:40.775Z,74.04
2019-05-28T06:05:45.251Z,73.46
2019-05-28T06:07:52.349Z,71.29
2019-05-28T06:09:58.724Z,70.57
2019-05-28T06:12:05.370Z,69.44
2019-05-28T06:14:11.737Z,69.65
2019-05-28T06:16:18.141Z,68.70
2019-05-28T06:18:24.556Z,66.52
2019-05-28T06:20:31.011Z,65.24
2019-05-28T06:22:37.502Z,64.06
2019-05-28T06:24:43.932Z,60.41
2019-05-28T06:26:50.471Z,55.61
2019-05-28T06:28:56.959Z,51.30
2019-05-28T06:31:03.426Z,51.67
2019-05-28T06:33:09.896Z,52.81
2019-05-28T06:35:16.730Z,53.04
2019-05-28T06:37:23.181Z,51.82
2019-05-28T06:39:29.572Z,48.01
2019-05-28T06:41:36.152Z,45.03
2019-05-28T06:43:42.536Z,40.19
2019-05-28T06:45:49.869Z,36.45
2019-05-28T06:47:56.273Z,37.83
2019-05-28T06:50:02.837Z,42.36
2019-05-28T06:52:09.224Z,47.07
2019-05-28T06:54:15.703Z,50.56
2019-05-28T06:56:22.190Z,53.39
2019-05-28T06:58:39.528Z,54.48
2019-05-28T07:00:36.428Z,55.10
2019-05-28T07:02:42.778Z,54.13
2019-05-28T07:04:49.285Z,46.44
2019-05-28T07:06:59.057Z,41.01
2019-05-28T07:09:06.605Z,39.90
2019-05-28T07:11:13.091Z,38.45
2019-05-28T07:13:19.553Z,36.37
2019-05-28T07:15:26.118Z,36.87
2019-05-28T07:17:32.489Z,34.96
2019-05-28T07:19:38.883Z,37.13
2019-05-28T07:21:45.312Z,37.99
2019-05-28T07:23:51.704Z,37.05
2019-05-28T07:25:58.089Z,34.55
2019-05-28T07:28:10.757Z,34.85
2019-05-28T07:30:13.131Z,35.31
2019-05-28T07:32:19.598Z,34.43
2019-05-28T07:34:30.890Z,32.53
2019-05-28T07:36:35.352Z,31.53
2019-05-28T07:38:41.751Z,31.24
2019-05-28T07:40:48.193Z,30.65
2019-05-28T07:42:54.738Z,31.53
2019-05-28T07:45:01.164Z,31.86
2019-05-28T07:47:10.948Z,30.69
2019-05-28T07:49:15.049Z,30.30
2019-05-28T07:51:21.440Z,29.32
2019-05-28T07:53:39.468Z,27.81
2019-05-28T07:55:35.096Z,27.89
2019-05-28T07:57:41.395Z,32.76
2019-05-28T07:59:47.769Z,35.25
2019-05-28T08:01:54.222Z,36.97
2019-05-28T08:04:00.693Z,40.64
2019-05-28T08:06:07.169Z,42.83
2019-05-28T08:08:17.908Z,44.58
2019-05-28T08:10:24.318Z,48.09
2019-05-28T08:12:30.968Z,46.77
2019-05-28T08:14:37.365Z,47.00
2019-05-28T08:16:52.327Z,46.16
2019-05-28T08:18:52.016Z,46.26
2019-05-28T08:20:58.504Z,47.83
2019-05-28T08:23:05.492Z,49.35
2019-05-28T08:25:23.977Z,49.14
2019-05-28T08:27:20.803Z,47.05
2019-05-28T08:29:27.091Z,45.71
2019-05-28T08:31:33.577Z,45.87
2019-05-28T08:33:40.040Z,41.11
2019-05-28T08:35:46.467Z,37.99
2019-05-28T08:37:52.888Z,38.95
2019-05-28T08:39:59.285Z,41.46
2019-05-28T08:42:05.969Z,42.92
2019-05-28T08:44:12.524Z,43.95
2019-05-28T08:46:18.979Z,45.20
2019-05-28T08:48:25.505Z,45.23
2019-05-28T08:50:34.997Z,45.31
2019-05-28T08:52:40.023Z,46.38
2019-05-28T08:54:46.418Z,47.89
2019-05-28T08:56:52.849Z,47.25
2019-05-28T08:58:59.407Z,48.63
2019-05-28T09:01:06.143Z,48.15
2019-05-28T09:03:14.111Z,47.25
2019-05-28T09:05:26.470Z,49.34
2019-05-28T09:07:28.401Z,49.62
2019-05-28T09:09:34.653Z,49.29
2019-05-28T09:11:41.053Z,48.73
2019-05-28T09:13:47.589Z,48.60
2019-05-28T09:15:56.052Z,48.00
2019-05-28T09:18:03.542Z,46.90
2019-05-28T09:20:10.480Z,46.59
2019-05-28T09:22:25.809Z,46.34
2019-05-28T09:24:27.698Z,47.41
2019-05-28T09:26:33.155Z,46.68
2019-05-28T09:28:39.661Z,47.50
2019-05-28T09:30:46.279Z,47.02
2019-05-28T09:32:52.840Z,46.93
2019-05-28T09:35:02.239Z,46.92
2019-05-28T09:37:07.409Z,47.63
2019-05-28T09:39:13.946Z,47.74
2019-05-28T09:41:20.368Z,46.79
2019-05-28T09:43:26.756Z,46.90
2019-05-28T09:45:33.280Z,47.08
2019-05-28T09:47:39.788Z,47.86
2019-05-28T09:49:46.348Z,47.45
2019-05-28T09:51:52.891Z,47.77
2019-05-28T09:53:59.367Z,48.14
2019-05-28T09:56:06.484Z,47.94
2019-05-28T09:58:12.949Z,48.24
2019-05-28T10:00:23.446Z,47.62
2019-05-28T10:02:30.323Z,47.51
2019-05-28T10:04:48.058Z,47.29
2019-05-28T10:06:44.910Z,46.41
2019-05-28T10:08:51.398Z,45.99
2019-05-28T10:10:57.867Z,45.75
2019-05-28T10:13:04.591Z,46.99
2019-05-28T10:15:11.523Z,46.86
2019-05-28T10:17:17.945Z,47.07
2019-05-28T10:19:25.420Z,46.66
2019-05-28T10:21:32.735Z,46.07
2019-05-28T10:23:39.186Z,45.23
2019-05-28T10:25:45.725Z,44.36
2019-05-28T10:28:00.690Z,43.95
2019-05-28T10:30:00.332Z,45.00
2019-05-28T10:32:06.859Z,46.22
2019-05-28T10:34:13.246Z,47.02
2019-05-28T10:36:35.020Z,46.56
2019-05-28T10:38:27.904Z,46.22
2019-05-28T10:40:34.394Z,45.16
2019-05-28T10:42:40.805Z,45.13
2019-05-28T10:44:47.218Z,45.25
2019-05-28T10:46:53.604Z,45.86
2019-05-28T10:49:00.067Z,45.85
2019-05-28T10:51:06.668Z,47.61
2019-05-28T10:53:13.270Z,48.71
2019-05-28T10:55:19.913Z,48.57
2019-05-28T10:57:26.370Z,48.74
2019-05-28T10:59:32.758Z,48.90
2019-05-28T11:01:40.150Z,48.59
2019-05-28T11:03:47.326Z,48.14
2019-05-28T11:05:54.971Z,48.27
2019-05-28T11:08:01.438Z,48.59
2019-05-28T11:10:23.186Z,48.01
2019-05-28T11:12:17.953Z,46.76
2019-05-28T11:14:24.484Z,46.59
2019-05-28T11:16:30.936Z,45.93
2019-05-28T11:18:37.420Z,45.61
2019-05-28T11:20:43.882Z,45.57
2019-05-28T11:22:50.284Z,45.13
2019-05-28T11:24:56.784Z,44.71
2019-05-28T11:27:03.265Z,44.76
2019-05-28T11:29:09.662Z,43.61
2019-05-28T11:31:16.111Z,43.46
2019-05-28T11:33:23.635Z,43.84
2019-05-28T11:35:30.185Z,43.64
2019-05-28T11:37:36.631Z,43.24
2019-05-28T11:39:43.260Z,42.06
2019-05-28T11:41:49.658Z,42.44
2019-05-28T11:43:56.148Z,42.25
2019-05-28T11:46:02.558Z,42.54
2019-05-28T11:48:09.036Z,42.08
2019-05-28T11:50:17.210Z,42.64
2019-05-28T11:52:23.890Z,42.58
2019-05-28T11:54:32.353Z,42.12
2019-05-28T11:56:38.736Z,44.06
2019-05-28T11:58:45.145Z,45.93
2019-05-28T12:00:51.752Z,46.21
2019-05-28T12:02:58.230Z,47.41
2019-05-28T12:05:10.516Z,47.45
2019-05-28T12:07:25.930Z,47.22
2019-05-28T12:09:25.087Z,46.35
2019-05-28T12:11:31.543Z,45.67
2019-05-28T12:13:37.931Z,45.79
2019-05-28T12:15:44.415Z,44.40
2019-05-28T12:17:51.012Z,42.71
2019-05-28T12:19:57.412Z,42.17
2019-05-28T12:22:03.882Z,42.25
2019-05-28T12:24:12.675Z,42.15
2019-05-28T12:26:19.080Z,42.50
2019-05-28T12:28:37.726Z,42.44
2019-05-28T12:30:34.107Z,42.22
2019-05-28T12:32:40.722Z,42.54
2019-05-28T12:34:47.137Z,43.31
2019-05-28T12:36:53.527Z,44.71
2019-05-28T12:38:59.939Z,45.35
2019-05-28T12:41:06.528Z,46.82
2019-05-28T12:43:12.963Z,47.31
2019-05-28T12:45:34.403Z,50.00
2019-05-28T12:47:28.279Z,50.72
2019-05-28T12:49:34.672Z,51.28
2019-05-28T12:51:41.442Z,52.35
2019-05-28T12:53:50.784Z,54.07
2019-05-28T12:55:56.072Z,55.91
2019-05-28T12:58:02.529Z,57.06
2019-05-28T13:00:12.999Z,58.01
2019-05-28T13:02:19.439Z,60.88
2019-05-28T13:04:25.964Z,59.04
2019-05-28T13:06:32.437Z,59.02
2019-05-28T13:08:38.886Z,59.10
2019-05-28T13:10:45.319Z,58.78
2019-05-28T13:12:51.746Z,58.64
2019-05-28T13:14:58.141Z,58.53
2019-05-28T13:17:04.617Z,57.75
2019-05-28T13:19:11.010Z,58.75
2019-05-28T13:21:17.466Z,59.08
2019-05-28T13:23:23.862Z,58.96
2019-05-28T13:25:30.270Z,58.99
2019-05-28T13:27:36.656Z,58.32
2019-05-28T13:29:43.070Z,58.03
2019-05-28T13:31:49.625Z,57.71
2019-05-28T13:33:56.094Z,58.58
2019-05-28T13:36:02.555Z,58.71
2019-05-28T13:38:25.861Z,58.25
2019-05-28T13:40:18.615Z,58.46
2019-05-28T13:42:25.159Z,58.47
2019-05-28T13:44:31.563Z,58.16
2019-05-28T13:46:38.047Z,57.47
2019-05-28T13:48:44.468Z,57.96
2019-05-28T13:50:50.855Z,57.77
2019-05-28T13:52:57.415Z,57.81
2019-05-28T13:55:05.213Z,57.75
2019-05-28T13:57:11.604Z,57.13
2019-05-28T13:59:18.008Z,57.09
2019-05-28T14:01:25.675Z,57.35
2019-05-28T14:03:33.473Z,57.49
2019-05-28T14:05:39.880Z,57.99
2019-05-28T14:07:46.349Z,58.52
2019-05-28T14:09:52.744Z,59.22
2019-05-28T14:11:59.129Z,60.31
2019-05-28T14:14:06.532Z,60.67
2019-05-28T14:16:13.005Z,60.93
2019-05-28T14:18:19.578Z,61.31
2019-05-28T14:20:26.242Z,62.27
2019-05-28T14:22:34.356Z,62.55
2019-05-28T14:24:40.810Z,63.41
2019-05-28T14:26:47.212Z,64.04
2019-05-28T14:28:53.979Z,65.09
2019-05-28T14:31:00.789Z,65.78
2019-05-28T14:33:07.270Z,67.88
2019-05-28T14:35:14.557Z,69.95
2019-05-28T14:37:20.948Z,70.52
2019-05-28T14:39:40.645Z,73.13
2019-05-28T14:41:35.475Z,73.11
2019-05-28T14:43:41.999Z,71.66
2019-05-28T14:45:48.562Z,70.79
2019-05-28T14:47:55.003Z,71.75
2019-05-28T14:50:01.553Z,72.84
2019-05-28T14:52:09.065Z,73.92
2019-05-28T14:54:15.472Z,76.15
2019-05-28T14:56:21.951Z,75.41
2019-05-28T14:58:28.397Z,75.14
2019-05-28T15:00:34.947Z,76.67
2019-05-28T15:02:41.416Z,75.49
2019-05-28T15:04:47.877Z,75.75
2019-05-28T15:06:57.210Z,75.96
2019-05-28T15:09:17.112Z,75.80
2019-05-28T15:11:10.578Z,75.24
2019-05-28T15:13:17.125Z,74.41
2019-05-28T15:15:35.124Z,74.03
2019-05-28T15:17:31.979Z,75.64
2019-05-28T15:19:39.355Z,77.16
2019-05-28T15:21:45.865Z,77.84
2019-05-28T15:23:52.334Z,77.88
2019-05-28T15:25:58.748Z,77.88
2019-05-28T15:28:05.405Z,78.19
2019-05-28T15:30:14.198Z,78.21
2019-05-28T15:32:19.944Z,78.39
2019-05-28T15:34:26.347Z,78.70
2019-05-28T15:36:32.833Z,79.09
2019-05-28T15:38:39.249Z,78.94
2019-05-28T15:40:46.209Z,78.37
2019-05-28T15:43:05.004Z,77.93
2019-05-28T15:45:00.791Z,77.67
2019-05-28T15:47:07.388Z,76.48
2019-05-28T15:49:13.853Z,77.73
2019-05-28T15:51:20.311Z,79.05
2019-05-28T15:53:26.792Z,79.24
2019-05-28T15:55:33.255Z,78.91
2019-05-28T15:57:39.872Z,79.09
2019-05-28T15:59:46.352Z,78.00
2019-05-28T16:01:52.744Z,78.62
2019-05-28T16:03:59.222Z,78.50
2019-05-28T16:06:06.172Z,78.82
2019-05-28T16:08:12.624Z,78.97
2019-05-28T16:10:19.526Z,79.59
2019-05-28T16:12:26.378Z,80.21
2019-05-28T16:14:32.764Z,81.70
2019-05-28T16:16:39.157Z,83.02
2019-05-28T16:18:45.569Z,83.86
2019-05-28T16:20:51.968Z,83.75
2019-05-28T16:22:58.363Z,85.01
2019-05-28T16:25:07.531Z,85.59
2019-05-28T16:27:14.023Z,86.38
2019-05-28T16:29:20.433Z,87.06
2019-05-28T16:31:26.893Z,87.10
2019-05-28T16:33:33.357Z,86.84
2019-05-28T16:35:39.882Z,86.65
2019-05-28T16:37:46.280Z,86.83
2019-05-28T16:39:52.716Z,85.82
2019-05-28T16:42:00.204Z,85.35
2019-05-28T16:44:07.338Z,84.64
2019-05-28T16:46:13.743Z,85.25
2019-05-28T16:48:20.133Z,84.81
2019-05-28T16:50:26.540Z,85.14
2019-05-28T16:52:32.941Z,84.73
2019-05-28T16:54:40.420Z,84.53
2019-05-28T16:56:46.897Z,84.42
2019-05-28T16:58:53.403Z,84.13
2019-05-28T17:01:19.110Z,83.33
2019-05-28T17:03:08.873Z,83.70
2019-05-28T17:05:15.624Z,84.45
2019-05-28T17:07:22.154Z,84.25
2019-05-28T17:09:28.600Z,83.93
2019-05-28T17:11:35.267Z,84.14
2019-05-28T17:13:47.514Z,83.22
2019-05-28T17:15:49.903Z,83.68
2019-05-28T17:17:56.316Z,83.48
2019-05-28T17:20:03.161Z,83.66
2019-05-28T17:22:10.985Z,83.67
2019-05-28T17:24:17.623Z,83.10
2019-05-28T17:26:24.130Z,82.74
2019-05-28T17:28:30.610Z,82.08
2019-05-28T17:30:37.087Z,81.96
2019-05-28T17:32:44.718Z,81.71
2019-05-28T17:34:51.423Z,81.43
2019-05-28T17:36:57.944Z,81.36
2019-05-28T17:39:06.124Z,80.56
2019-05-28T17:41:12.670Z,80.72
2019-05-28T17:43:19.979Z,80.80
2019-05-28T17:45:26.551Z,80.79
2019-05-28T17:47:41.795Z,80.12
2019-05-28T17:49:41.042Z,79.96
2019-05-28T17:51:47.467Z,79.58
2019-05-28T17:53:53.995Z,80.10
2019-05-28T17:56:00.438Z,80.76
2019-05-28T17:58:06.907Z,81.70
2019-05-28T18:00:16.193Z,82.26
2019-05-28T18:02:22.677Z,82.41
2019-05-28T18:04:29.048Z,82.89
2019-05-28T18:06:35.485Z,83.12
2019-05-28T18:08:41.865Z,83.40
2019-05-28T18:11:03.311Z,83.49
2019-05-28T18:12:56.518Z,83.41
2019-05-28T18:15:02.980Z,84.02
2019-05-28T18:17:09.504Z,83.71
2019-05-28T18:19:16.210Z,83.46
2019-05-28T18:21:22.740Z,83.45
2019-05-28T18:23:29.266Z,83.62
2019-05-28T18:25:35.791Z,83.47
2019-05-28T18:27:42.321Z,83.22
2019-05-28T18:29:48.868Z,83.21
2019-05-28T18:31:55.580Z,82.93
2019-05-28T18:34:02.128Z,84.00
2019-05-28T18:36:08.733Z,84.61
2019-05-28T18:38:15.115Z,85.52
2019-05-28T18:40:22.211Z,86.92
2019-05-28T18:42:28.692Z,87.12
2019-05-28T18:44:35.168Z,87.10
2019-05-28T18:46:41.556Z,87.23
2019-05-28T18:48:49.144Z,87.38
2019-05-28T18:50:55.613Z,87.63
2019-05-28T18:53:03.177Z,87.56
2019-05-28T18:55:10.001Z,87.47
2019-05-28T18:57:18.273Z,87.48
2019-05-28T18:59:26.195Z,87.53
2019-05-28T19:01:32.876Z,87.43
2019-05-28T19:03:39.361Z,87.61
2019-05-28T19:05:45.755Z,87.77
2019-05-28T19:07:52.299Z,87.83
2019-05-28T19:09:58.820Z,87.89
2019-05-28T19:12:05.290Z,88.18
2019-05-28T19:14:11.916Z,88.11
2019-05-28T19:16:18.398Z,88.53
2019-05-28T19:18:24.880Z,88.52
2019-05-28T19:20:31.478Z,88.79
2019-05-28T19:22:38.036Z,89.02
2019-05-28T19:24:44.460Z,89.32
2019-05-28T19:26:50.853Z,89.26
2019-05-28T19:28:57.667Z,89.44
2019-05-28T19:31:05.478Z,89.69
2019-05-28T19:33:12.066Z,89.86
2019-05-28T19:35:18.532Z,90.07
2019-05-28T19:37:25.402Z,90.33
2019-05-28T19:39:32.926Z,90.37
2019-05-28T19:41:52.363Z,90.46
2019-05-28T19:43:47.587Z,90.64
2019-05-28T19:45:54.197Z,91.02
2019-05-28T19:48:00.787Z,91.24
2019-05-28T19:50:08.553Z,91.36
2019-05-28T19:52:15.114Z,91.48
2019-05-28T19:54:22.855Z,91.63
2019-05-28T19:56:29.378Z,91.76
2019-05-28T19:58:35.804Z,91.92
2019-05-28T20:00:42.797Z,92.21
2019-05-28T20:02:49.378Z,92.51
2019-05-28T20:04:55.953Z,92.71
2019-05-28T20:07:02.497Z,92.91
2019-05-28T20:09:09.716Z,93.16
2019-05-28T20:11:16.245Z,93.37
2019-05-28T20:13:22.863Z,93.58
2019-05-28T20:15:29.327Z,93.83
2019-05-28T20:17:35.853Z,94.08
2019-05-28T20:19:42.510Z,94.17
2019-05-28T20:21:52.095Z,94.34
2019-05-28T20:23:57.203Z,94.48
2019-05-28T20:26:03.594Z,94.66
2019-05-28T20:28:10.149Z,94.87
2019-05-28T20:30:18.302Z,95.03
2019-05-28T20:32:24.895Z,95.10
2019-05-28T20:34:31.404Z,95.19
2019-05-28T20:36:40.549Z,95.37
2019-05-28T20:38:49.515Z,95.46
2019-05-28T20:40:56.094Z,95.48
2019-05-28T20:43:02.633Z,95.55
2019-05-28T20:45:15.664Z,95.74
2019-05-28T20:47:22.685Z,95.82
2019-05-28T20:49:29.169Z,96.01
2019-05-28T20:51:35.579Z,96.21
2019-05-28T20:53:42.139Z,96.31
2019-05-28T20:55:48.614Z,96.34
2019-05-28T20:57:57.384Z,96.40
2019-05-28T21:00:06.877Z,96.53
2019-05-28T21:02:14.929Z,96.54
2019-05-28T21:04:21.321Z,96.56
2019-05-28T21:06:28.039Z,96.55
2019-05-28T21:08:34.430Z,96.63
2019-05-28T21:10:40.896Z,96.69
2019-05-28T21:12:48.359Z,96.76
2019-05-28T21:14:54.927Z,96.82
2019-05-28T21:17:01.588Z,96.88
2019-05-28T21:19:11.808Z,96.86
2019-05-28T21:21:18.356Z,96.92
2019-05-28T21:23:24.831Z,97.01
2019-05-28T21:25:31.423Z,97.13
2019-05-28T21:27:38.080Z,97.23
2019-05-28T21:29:44.578Z,97.29
2019-05-28T21:31:51.019Z,97.30
2019-05-28T21:33:57.500Z,97.41
2019-05-28T21:36:03.989Z,97.42
2019-05-28T21:38:10.449Z,97.43
2019-05-28T21:40:19.882Z,97.47
2019-05-28T21:42:26.369Z,97.52
2019-05-28T21:44:32.782Z,97.62
2019-05-28T21:46:39.244Z,97.67
2019-05-28T21:48:46.386Z,97.75
2019-05-28T21:50:52.887Z,97.85
2019-05-28T21:52:59.449Z,97.96
2019-05-28T21:55:10.543Z,98.07
2019-05-28T21:57:17.013Z,98.20
2019-05-28T21:59:23.430Z,98.39
2019-05-28T22:01:34.194Z,98.62
2019-05-28T22:03:40.589Z,98.80
2019-05-28T22:05:47.123Z,98.80
2019-05-28T22:07:55.383Z,98.81
2019-05-28T22:10:02.408Z,98.83
2019-05-28T22:12:10.552Z,98.81
2019-05-28T22:14:17.187Z,98.83
2019-05-28T22:16:23.645Z,98.83
2019-05-28T22:18:30.309Z,98.67
2019-05-28T22:20:36.793Z,98.56
2019-05-28T22:22:43.324Z,98.49
2019-05-28T22:24:49.799Z,98.46
2019-05-28T22:27:00.235Z,98.42
2019-05-28T22:29:08.039Z,98.26
2019-05-28T22:31:15.060Z,98.25
2019-05-28T22:33:21.686Z,98.13
2019-05-28T22:35:28.333Z,98.12
2019-05-28T22:37:34.836Z,98.13
2019-05-28T22:39:41.256Z,98.12
2019-05-28T22:41:47.656Z,98.12
2019-05-28T22:43:54.364Z,98.07
2019-05-28T22:46:01.238Z,98.02
2019-05-28T22:48:15.633Z,98.00
2019-05-28T22:50:22.813Z,98.00
2019-05-28T22:52:25.059Z,97.98
2019-05-28T22:54:31.467Z,97.99
2019-05-28T22:56:37.937Z,97.90
2019-05-28T22:58:44.335Z,97.92
2019-05-28T23:00:50.888Z,97.87
2019-05-28T23:02:58.742Z,97.76
2019-05-28T23:05:10.682Z,97.67
2019-05-28T23:07:18.146Z,97.64
2019-05-28T23:09:24.670Z,97.40
2019-05-28T23:11:31.214Z,97.30
2019-05-28T23:13:46.427Z,97.09
2019-05-28T23:15:45.731Z,97.09
2019-05-28T23:17:52.234Z,97.03
2019-05-28T23:19:58.684Z,96.97
2019-05-28T23:22:05.170Z,96.88
2019-05-28T23:24:11.565Z,96.73
2019-05-28T23:26:18.087Z,96.70
2019-05-28T23:28:24.626Z,96.73
2019-05-28T23:30:31.027Z,96.67
2019-05-28T23:32:37.434Z,96.70
2019-05-28T23:34:43.971Z,96.83
2019-05-28T23:36:50.378Z,96.83
2019-05-28T23:38:56.794Z,96.83
2019-05-28T23:41:03.214Z,96.82
2019-05-28T23:43:09.638Z,96.86
2019-05-28T23:45:16.340Z,96.90
2019-05-28T23:47:22.778Z,96.90
2019-05-28T23:49:30.263Z,97.03
2019-05-28T23:51:36.744Z,97.09
2019-05-28T23:53:43.278Z,97.11
2019-05-28T23:55:49.676Z,97.07
2019-05-28T23:57:56.154Z,97.02
